Impacts TAF Board
For situational awareness. Not to be used for flight planning purposes.
IDs:

KCLL - College Station/East, TX, US

Issued at 1734 UTC 02 Oct 2022
Updated at 1903 UTC 02 Oct 2022
Potential Impact None Slight Moderate High
Time1853Z 02/20Z 02/21Z 02/22Z 02/23Z 03/00Z 03/01Z 03/02Z 03/03Z 03/04Z 03/05Z 03/06Z 03/07Z 03/08Z>>
Type OBS PRVL PRVL PRVL PRVL PRVL PRVL PRVL PRVL PRVL PRVL PRVL PRVL PRVL
VIS 10 >6 >6 >6 >6 >6 >6 >6 >6 >6 >6 >6 >6 >6
CIG -- -- -- -- -- -- -- -- -- -- -- -- -- --
Cover CLR SKC SKC SKC SKC SCT SCT SCT SCT SCT SCT SCT SCT SCT
FltCat VFR VFR VFR VFR VFR VFR VFR VFR VFR VFR VFR VFR VFR VFR
WX -- -- -- -- -- -- -- -- -- -- -- -- -- --
WDir VRB VRB VRB VRB VRB VRB VRB VRB VRB VRB VRB VRB VRB VRB
WSpd 0 5 5 5 5 3 3 3 3 3 3 3 3 3
WGst -- -- -- -- -- -- -- -- -- -- -- -- -- --
WSHgt -- -- -- -- -- -- -- -- -- -- -- -- -- --
WSDir -- -- -- -- -- -- -- -- -- -- -- -- -- --
WSSpd -- -- -- -- -- -- -- -- -- -- -- -- -- --
R11/29
XWnd VRB VRB VRB VRB VRB VRB VRB VRB VRB VRB VRB VRB VRB VRB
HWnd VRB VRB VRB VRB VRB VRB VRB VRB VRB VRB VRB VRB VRB VRB
R17/35
XWnd VRB VRB VRB VRB VRB VRB VRB VRB VRB VRB VRB VRB VRB VRB
HWnd VRB VRB VRB VRB VRB VRB VRB VRB VRB VRB VRB VRB VRB VRB
Raw TAF
KCLL 021734Z 0218/0318 VRB05KT P6SM SKC
  FM030000 VRB03KT P6SM SCT250


Raw METAR
KCLL 021853Z 00000KT 10SM CLR 28/07 A3013 RMK AO2 SLP197 T02780067
KCLL 021753Z VRB04KT 10SM CLR 27/08 A3015 RMK AO2 SLP206 T02720078 10283 20133 58010
KCLL 021653Z VRB05KT 10SM CLR 26/08 A3018 RMK AO2 SLP214 T02610078

METAR Board
Radar Display
Forecast Discussion
For situational awareness. Not to be used for flight planning purposes.